Terminal Aerodrome Forecast
Issued by NWS

Home | Current Version | Previous Version | Text Only | Print | Product List | Glossary Off
Versions: 1 2 3 4 5 6 7 8 9 10 11 12 13 14 15 16 17

000
FTUS43 KUNR 292300
TAFGCC
TAF
KGCC 292320Z 3000/3024 05005KT P6SM SKC
     FM300300 13005KT P6SM SKC
     FM300900 16013KT P6SM SCT250
     FM301700 19015KT P6SM SCT250
     FM302100 26009KT P6SM SCT080 BKN250=

USA.gov is the U.S. government's official web portal to all federal, state and local government web resources and services.